createdAt,value
2023-04-28T00:00:42.408Z,3.40
2023-04-28T00:03:13.241Z,3.40
2023-04-28T00:05:43.677Z,3.40
2023-04-28T00:08:13.919Z,3.30
2023-04-28T00:10:44.089Z,3.20
2023-04-28T00:13:14.259Z,3.10
2023-04-28T00:15:44.413Z,3.10
2023-04-28T00:18:14.922Z,3.20
2023-04-28T00:20:45.318Z,3.20
2023-04-28T00:23:15.578Z,3.50
2023-04-28T00:25:45.829Z,3.30
2023-04-28T00:28:30.454Z,3.20
2023-04-28T00:31:11.381Z,3.20
2023-04-28T00:33:42.299Z,3.20
2023-04-28T00:36:13.401Z,3.20
2023-04-28T00:38:43.746Z,3.70
2023-04-28T00:41:15.406Z,3.30
2023-04-28T00:43:49.527Z,3.00
2023-04-28T00:46:24.097Z,3.00
2023-04-28T00:48:54.484Z,3.60
2023-04-28T00:51:24.736Z,3.40
2023-04-28T00:53:54.958Z,4.90
2023-04-28T00:56:27.541Z,3.40
2023-04-28T00:58:58.197Z,3.90
2023-04-28T01:01:28.419Z,4.00
2023-04-28T01:03:59.266Z,3.70
2023-04-28T01:06:30.904Z,3.30
2023-04-28T01:09:01.991Z,4.20
2023-04-28T01:11:32.278Z,4.20
2023-04-28T01:14:11.259Z,3.90
2023-04-28T01:16:43.054Z,4.50
2023-04-28T01:19:16.800Z,4.60
2023-04-28T01:21:47.204Z,3.90
2023-04-28T01:24:23.405Z,4.40
2023-04-28T01:26:53.915Z,3.60
2023-04-28T01:29:26.621Z,3.40
2023-04-28T01:31:57.264Z,3.20
2023-04-28T01:34:27.587Z,3.50
2023-04-28T01:36:57.719Z,3.40
2023-04-28T01:39:28.200Z,3.60
2023-04-28T01:42:00.151Z,4.00
2023-04-28T01:44:30.518Z,3.60
2023-04-28T01:47:01.062Z,4.80
2023-04-28T01:49:31.552Z,3.80
2023-04-28T01:52:01.867Z,5.00
2023-04-28T01:54:33.558Z,4.70
2023-04-28T01:57:04.388Z,4.30
2023-04-28T01:59:35.009Z,4.70
2023-04-28T02:02:05.318Z,5.50
2023-04-28T02:04:36.173Z,5.20
2023-04-28T02:07:07.276Z,5.30
2023-04-28T02:09:37.522Z,5.80
2023-04-28T02:12:08.218Z,5.10
2023-04-28T02:14:38.765Z,5.30
2023-04-28T02:17:09.213Z,5.50
2023-04-28T02:19:39.556Z,5.90
2023-04-28T02:22:09.751Z,6.40
2023-04-28T02:24:40.107Z,6.00
2023-04-28T02:27:10.385Z,5.30
2023-04-28T02:29:41.143Z,6.70
2023-04-28T02:32:11.730Z,5.80
2023-04-28T02:34:41.981Z,6.00
2023-04-28T02:37:12.199Z,6.40
2023-04-28T02:39:42.436Z,5.60
2023-04-28T02:42:12.656Z,6.20
2023-04-28T02:44:42.913Z,6.20
2023-04-28T02:47:13.200Z,5.80
2023-04-28T02:49:44.642Z,6.30
2023-04-28T02:52:15.075Z,5.30
2023-04-28T02:54:48.813Z,6.30
2023-04-28T02:57:19.279Z,5.60
2023-04-28T02:59:49.643Z,5.20
2023-04-28T03:02:20.661Z,5.10
2023-04-28T03:04:51.222Z,5.10
2023-04-28T03:07:21.451Z,5.20
2023-04-28T03:09:51.681Z,5.10
2023-04-28T03:12:21.905Z,4.50
2023-04-28T03:14:52.073Z,4.60
2023-04-28T03:17:22.323Z,4.40
2023-04-28T03:19:55.180Z,5.10
2023-04-28T03:22:25.422Z,5.20
2023-04-28T03:24:56.464Z,5.40
2023-04-28T03:27:27.164Z,5.70
2023-04-28T03:29:57.925Z,5.50
2023-04-28T03:32:28.177Z,5.90
2023-04-28T03:34:58.609Z,5.10
2023-04-28T03:37:28.868Z,5.70
2023-04-28T03:39:59.752Z,5.10
2023-04-28T03:42:30.233Z,5.60
2023-04-28T03:45:12.052Z,5.90
2023-04-28T03:47:42.307Z,3.90
2023-04-28T03:50:14.655Z,4.60
2023-04-28T03:52:44.875Z,4.70
2023-04-28T03:55:15.880Z,4.30
2023-04-28T03:57:46.205Z,5.20
2023-04-28T04:00:17.506Z,4.80
2023-04-28T04:02:48.949Z,5.00
2023-04-28T04:05:19.628Z,5.50
2023-04-28T04:07:50.019Z,5.50
2023-04-28T04:10:20.762Z,5.10
2023-04-28T04:12:51.511Z,5.00
2023-04-28T04:15:21.778Z,5.10
2023-04-28T04:17:52.233Z,5.60
2023-04-28T04:20:24.236Z,6.00
2023-04-28T04:22:54.462Z,5.70
2023-04-28T04:25:24.748Z,5.80
2023-04-28T04:27:55.453Z,6.90
2023-04-28T04:30:25.631Z,8.00
2023-04-28T04:32:56.475Z,7.50
2023-04-28T04:35:27.252Z,7.80
2023-04-28T04:37:58.013Z,8.40
2023-04-28T04:40:28.676Z,7.20
2023-04-28T04:42:59.197Z,7.50
2023-04-28T04:45:31.746Z,8.00
2023-04-28T04:48:02.107Z,7.60
2023-04-28T04:50:33.399Z,8.20
2023-04-28T04:53:03.754Z,8.00
2023-04-28T04:55:34.430Z,7.90
2023-04-28T04:58:04.821Z,7.70
2023-04-28T05:00:35.884Z,6.80
2023-04-28T05:03:07.100Z,7.50
2023-04-28T05:05:37.760Z,7.20
2023-04-28T05:08:17.261Z,7.40
2023-04-28T05:10:47.506Z,6.70
2023-04-28T05:13:21.090Z,7.00
2023-04-28T05:15:52.710Z,7.00
2023-04-28T05:18:32.432Z,7.10
2023-04-28T05:21:03.563Z,7.70
2023-04-28T05:23:33.791Z,7.40
2023-04-28T05:26:04.239Z,7.60
2023-04-28T05:28:35.583Z,7.30
2023-04-28T05:31:06.926Z,7.00
2023-04-28T05:33:37.933Z,7.50
2023-04-28T05:36:09.513Z,6.40
2023-04-28T05:38:39.924Z,7.20
2023-04-28T05:41:10.558Z,7.40
2023-04-28T05:43:41.191Z,7.50
2023-04-28T05:46:28.346Z,8.20
2023-04-28T05:49:01.718Z,8.20
2023-04-28T05:51:37.134Z,8.50
2023-04-28T05:54:07.510Z,6.90
2023-04-28T05:56:42.228Z,8.30
2023-04-28T05:59:12.431Z,8.80
2023-04-28T06:01:42.953Z,10.00
2023-04-28T06:04:13.433Z,8.60
2023-04-28T06:06:43.838Z,9.30
2023-04-28T06:09:14.571Z,7.80
2023-04-28T06:11:45.166Z,8.10
2023-04-28T06:14:15.837Z,8.80
2023-04-28T06:16:46.249Z,9.50
2023-04-28T06:19:19.060Z,10.00
2023-04-28T06:21:50.342Z,7.50
2023-04-28T06:24:20.996Z,8.60
2023-04-28T06:26:51.884Z,8.50
2023-04-28T06:29:24.211Z,9.50
2023-04-28T06:31:57.655Z,10.50
2023-04-28T06:34:28.928Z,10.10
2023-04-28T06:37:00.629Z,9.50
2023-04-28T06:39:30.933Z,9.30
2023-04-28T06:42:02.178Z,9.60
2023-04-28T06:44:33.872Z,10.70
2023-04-28T06:47:05.837Z,9.70
2023-04-28T06:49:36.043Z,10.70
2023-04-28T06:52:07.969Z,10.10
2023-04-28T06:54:38.645Z,10.30
2023-04-28T06:57:12.434Z,9.80
2023-04-28T06:59:51.032Z,10.80
2023-04-28T07:02:24.215Z,10.80
2023-04-28T07:07:52.876Z,8.20
2023-04-28T07:10:23.343Z,8.60
2023-04-28T07:12:53.890Z,8.10
2023-04-28T07:15:26.854Z,8.80
2023-04-28T07:17:57.162Z,9.50
2023-04-28T07:20:28.213Z,10.40
2023-04-28T07:23:06.527Z,8.10
2023-04-28T07:25:36.770Z,11.20
2023-04-28T07:28:34.757Z,10.50
2023-04-28T07:31:04.907Z,9.90
2023-04-28T07:33:35.109Z,10.50
2023-04-28T07:36:05.749Z,10.50
2023-04-28T07:38:37.342Z,10.80
2023-04-28T07:41:10.094Z,11.00
2023-04-28T07:43:41.955Z,8.30
2023-04-28T07:46:12.556Z,7.80
2023-04-28T07:48:42.845Z,11.20
2023-04-28T07:51:13.088Z,10.80
2023-04-28T07:53:43.286Z,10.40
2023-04-28T07:56:13.657Z,11.00
2023-04-28T07:58:43.882Z,11.50
2023-04-28T08:01:14.217Z,12.70
2023-04-28T08:03:44.730Z,11.90
2023-04-28T08:06:15.516Z,10.50
2023-04-28T08:08:45.780Z,10.40
2023-04-28T08:11:15.958Z,11.10
2023-04-28T08:13:47.091Z,9.90
2023-04-28T08:16:17.719Z,11.90
2023-04-28T08:18:48.371Z,10.80
2023-04-28T08:21:18.574Z,12.60
2023-04-28T08:23:49.028Z,12.60
2023-04-28T08:26:19.163Z,13.00
2023-04-28T08:28:49.360Z,12.80
2023-04-28T08:31:19.684Z,12.20
2023-04-28T08:33:51.284Z,11.30
2023-04-28T08:36:21.643Z,12.80
2023-04-28T08:38:52.703Z,12.70
2023-04-28T08:41:23.191Z,12.90
2023-04-28T08:43:53.629Z,14.40
2023-04-28T08:46:26.118Z,14.10
2023-04-28T08:49:01.755Z,13.90
2023-04-28T08:51:42.163Z,12.30
2023-04-28T08:54:29.197Z,10.40
2023-04-28T08:57:00.827Z,11.70
2023-04-28T08:59:34.940Z,13.00
2023-04-28T09:02:05.325Z,14.50
2023-04-28T09:04:36.405Z,14.40
2023-04-28T09:07:13.532Z,12.90
2023-04-28T09:09:45.501Z,13.60
2023-04-28T09:12:15.928Z,15.00
2023-04-28T09:14:46.233Z,15.10
2023-04-28T09:17:19.641Z,15.70
2023-04-28T09:19:50.630Z,14.40
2023-04-28T09:22:30.486Z,14.50
2023-04-28T09:25:13.896Z,15.70
2023-04-28T09:27:44.774Z,16.10
2023-04-28T09:30:15.895Z,14.90
2023-04-28T09:32:51.019Z,14.90
2023-04-28T09:35:41.847Z,17.70
2023-04-28T09:38:12.576Z,17.20
2023-04-28T09:41:00.153Z,17.20
2023-04-28T09:43:32.701Z,14.70
2023-04-28T09:46:04.541Z,17.90
2023-04-28T09:48:37.960Z,15.50
2023-04-28T09:51:11.567Z,17.40
2023-04-28T09:53:44.242Z,17.10
2023-04-28T09:56:14.910Z,17.40
2023-04-28T09:58:46.417Z,16.40
2023-04-28T10:01:17.072Z,13.60
2023-04-28T10:03:48.145Z,16.20
2023-04-28T10:06:18.649Z,14.40
2023-04-28T10:08:50.946Z,14.20
2023-04-28T10:11:22.642Z,15.40
2023-04-28T10:13:52.980Z,14.40
2023-04-28T10:16:23.557Z,14.50
2023-04-28T10:18:54.575Z,13.50
2023-04-28T10:21:25.199Z,14.70
2023-04-28T10:24:12.373Z,13.80
2023-04-28T10:27:04.206Z,13.80
2023-04-28T10:29:35.415Z,13.80
2023-04-28T10:32:20.299Z,15.70
2023-04-28T10:34:50.772Z,16.40
2023-04-28T10:37:21.026Z,15.20
2023-04-28T10:40:19.483Z,17.30
2023-04-28T10:42:57.116Z,17.40
2023-04-28T10:45:57.466Z,16.50
2023-04-28T10:48:58.272Z,16.90
2023-04-28T10:51:35.394Z,14.50
2023-04-28T10:54:19.382Z,16.40
2023-04-28T10:57:18.455Z,17.30
2023-04-28T10:59:48.793Z,16.90
2023-04-28T11:02:41.137Z,18.50
2023-04-28T11:05:16.339Z,16.80
2023-04-28T11:08:29.871Z,15.90
2023-04-28T11:13:42.757Z,18.10
2023-04-28T11:16:13.384Z,17.60
2023-04-28T11:18:54.904Z,16.80
2023-04-28T11:21:28.151Z,14.70
2023-04-28T11:26:27.744Z,18.50
2023-04-28T11:28:59.431Z,16.50
2023-04-28T11:31:29.703Z,20.00
2023-04-28T11:34:02.144Z,17.80
2023-04-28T11:36:35.365Z,15.60
2023-04-28T11:39:07.559Z,15.60
2023-04-28T11:41:38.766Z,19.10
2023-04-28T11:44:16.848Z,17.50
2023-04-28T11:46:53.700Z,15.50
2023-04-28T11:49:25.295Z,16.50
2023-04-28T11:51:55.692Z,15.30
2023-04-28T11:54:27.654Z,15.90
2023-04-28T11:56:58.864Z,15.60
2023-04-28T11:59:31.743Z,17.30
2023-04-28T12:02:03.305Z,15.60
2023-04-28T12:04:36.533Z,14.20
2023-04-28T12:07:10.393Z,15.10
2023-04-28T12:09:42.375Z,13.20
2023-04-28T12:12:17.329Z,14.50
2023-04-28T12:14:58.200Z,16.30
2023-04-28T12:17:30.854Z,17.60
2023-04-28T12:20:02.168Z,16.90
2023-04-28T12:22:32.943Z,16.70
2023-04-28T12:25:08.236Z,15.90
2023-04-28T12:27:40.429Z,14.80
2023-04-28T12:30:27.205Z,14.20
2023-04-28T12:32:57.678Z,16.40
2023-04-28T12:35:29.234Z,14.40
2023-04-28T12:37:59.964Z,13.00
2023-04-28T12:40:30.737Z,13.60
2023-04-28T12:43:00.930Z,15.90
2023-04-28T12:45:32.818Z,15.60
2023-04-28T12:48:03.238Z,14.70
2023-04-28T12:50:33.436Z,14.30
2023-04-28T12:53:03.592Z,13.30
2023-04-28T12:55:33.788Z,13.50
2023-04-28T12:58:03.976Z,11.70
2023-04-28T13:00:34.168Z,10.50
2023-04-28T13:03:04.671Z,8.80
2023-04-28T13:05:35.410Z,7.60
2023-04-28T13:08:06.234Z,8.70
2023-04-28T13:10:36.702Z,11.00
2023-04-28T13:13:07.674Z,12.70
2023-04-28T13:15:40.376Z,11.70
2023-04-28T13:18:10.700Z,10.90
2023-04-28T13:20:40.849Z,9.90
2023-04-28T13:23:10.994Z,11.70
2023-04-28T13:25:41.320Z,9.60
2023-04-28T13:28:13.410Z,11.30
2023-04-28T13:30:43.677Z,9.90
2023-04-28T13:33:13.976Z,8.30
2023-04-28T13:35:44.441Z,7.10
2023-04-28T13:38:14.951Z,9.00
2023-04-28T13:40:45.625Z,9.70
2023-04-28T13:43:18.029Z,9.40
2023-04-28T13:45:48.820Z,9.60
2023-04-28T13:48:19.120Z,9.60
2023-04-28T13:50:49.377Z,10.40
2023-04-28T13:53:19.593Z,10.60
2023-04-28T13:55:53.838Z,10.70
2023-04-28T13:58:24.150Z,10.80
2023-04-28T14:00:56.974Z,10.90
2023-04-28T14:03:28.009Z,9.90
2023-04-28T14:05:59.172Z,8.90
2023-04-28T14:08:32.601Z,8.70
2023-04-28T14:11:02.975Z,7.90
2023-04-28T14:13:33.486Z,8.50
2023-04-28T14:16:03.832Z,8.90
2023-04-28T14:18:34.457Z,8.90
2023-04-28T14:21:08.005Z,9.90
2023-04-28T14:23:39.366Z,8.80
2023-04-28T14:26:09.544Z,10.90
2023-04-28T14:28:39.803Z,10.30
2023-04-28T14:31:10.111Z,9.60
2023-04-28T14:33:40.622Z,9.50
2023-04-28T14:36:11.315Z,12.30
2023-04-28T14:38:41.827Z,12.10
2023-04-28T14:41:12.230Z,11.80
2023-04-28T14:43:43.340Z,11.60
2023-04-28T14:46:14.810Z,13.00
2023-04-28T14:48:45.110Z,12.90
2023-04-28T14:51:15.865Z,10.00
2023-04-28T14:53:46.149Z,13.50
2023-04-28T14:56:18.996Z,12.10
2023-04-28T14:58:50.092Z,12.70
2023-04-28T15:01:20.605Z,12.40
2023-04-28T15:03:51.013Z,12.00
2023-04-28T15:06:22.174Z,11.10
2023-04-28T15:08:52.958Z,9.20
2023-04-28T15:11:24.195Z,10.30
2023-04-28T15:13:54.527Z,9.80
2023-04-28T15:16:30.566Z,11.10
2023-04-28T15:19:01.202Z,9.40
2023-04-28T15:21:31.994Z,10.00
2023-04-28T15:24:02.211Z,9.70
2023-04-28T15:26:32.880Z,9.60
2023-04-28T15:29:03.244Z,7.60
2023-04-28T15:31:33.585Z,9.40
2023-04-28T15:34:04.128Z,9.20
2023-04-28T15:36:34.446Z,9.30
2023-04-28T15:39:06.236Z,9.30
2023-04-28T15:41:37.087Z,9.10
2023-04-28T15:44:09.849Z,9.60
2023-04-28T15:49:09.000Z,8.90
2023-04-28T15:51:39.310Z,9.30
2023-04-28T15:54:09.538Z,8.60
2023-04-28T15:56:39.719Z,7.70
2023-04-28T15:59:14.875Z,8.20
2023-04-28T16:01:45.086Z,8.90
2023-04-28T16:04:15.597Z,8.60
2023-04-28T16:06:46.108Z,8.30
2023-04-28T16:09:16.408Z,8.30
2023-04-28T16:11:47.178Z,8.40
2023-04-28T16:14:17.735Z,8.50
2023-04-28T16:16:48.212Z,7.80
2023-04-28T16:19:18.734Z,8.60
2023-04-28T16:21:48.965Z,8.00
2023-04-28T16:24:22.184Z,7.40
2023-04-28T16:26:52.408Z,7.50
2023-04-28T16:29:23.688Z,7.20
2023-04-28T16:31:53.902Z,7.20
2023-04-28T16:34:24.216Z,7.00
2023-04-28T16:36:55.510Z,7.10
2023-04-28T16:39:26.108Z,7.10
2023-04-28T16:41:57.376Z,7.60
2023-04-28T16:44:27.758Z,7.20
2023-04-28T16:46:58.307Z,7.30
2023-04-28T16:49:29.153Z,6.40
2023-04-28T16:52:01.146Z,5.80
2023-04-28T16:54:32.063Z,7.00
2023-04-28T16:57:04.049Z,7.80
2023-04-28T16:59:34.345Z,7.20
2023-04-28T17:02:05.187Z,7.30
2023-04-28T17:04:36.912Z,7.40
2023-04-28T17:07:07.676Z,7.40
2023-04-28T17:09:38.447Z,7.40
2023-04-28T17:12:09.397Z,6.90
2023-04-28T17:14:41.522Z,7.40
2023-04-28T17:17:11.966Z,7.60
2023-04-28T17:19:42.615Z,7.80
2023-04-28T17:22:12.825Z,7.70
2023-04-28T17:24:44.650Z,7.50
2023-04-28T17:27:15.096Z,9.90
2023-04-28T17:29:45.382Z,7.20
2023-04-28T17:38:40.726Z,6.80
2023-04-28T17:41:11.105Z,6.40
2023-04-28T17:43:41.343Z,6.00
2023-04-28T17:46:12.327Z,6.50
2023-04-28T17:48:43.145Z,6.90
2023-04-28T17:51:13.687Z,7.10
2023-04-28T17:53:44.219Z,6.80
2023-04-28T17:56:14.616Z,7.00
2023-04-28T17:58:44.950Z,7.40
2023-04-28T18:01:15.188Z,7.40
2023-04-28T18:03:45.558Z,7.60
2023-04-28T18:06:16.603Z,7.30
2023-04-28T18:08:46.997Z,6.70
2023-04-28T18:11:17.488Z,6.90
2023-04-28T18:13:48.251Z,7.60
2023-04-28T18:16:18.542Z,7.40
2023-04-28T18:18:49.396Z,7.80
2023-04-28T18:21:20.037Z,7.20
2023-04-28T18:23:50.313Z,7.90
2023-04-28T18:26:22.141Z,6.30
2023-04-28T18:28:52.390Z,7.30
2023-04-28T18:31:22.601Z,7.40
2023-04-28T18:33:52.881Z,7.00
2023-04-28T18:36:23.458Z,6.90
2023-04-28T18:38:53.713Z,7.00
2023-04-28T18:41:24.655Z,7.40
2023-04-28T18:43:54.896Z,7.40
2023-04-28T18:46:25.337Z,7.40
2023-04-28T18:48:55.878Z,6.90
2023-04-28T18:51:26.214Z,6.40
2023-04-28T18:53:56.796Z,6.00
2023-04-28T18:56:27.073Z,5.90
2023-04-28T18:58:58.099Z,5.70
2023-04-28T19:01:28.478Z,5.40
2023-04-28T19:03:59.106Z,5.20
2023-04-28T19:06:29.640Z,6.00
2023-04-28T19:08:59.902Z,5.50
2023-04-28T19:11:30.487Z,4.90
2023-04-28T19:14:01.329Z,4.90
2023-04-28T19:16:31.776Z,5.70
2023-04-28T19:19:02.059Z,5.20
2023-04-28T19:21:34.216Z,5.70
2023-04-28T19:24:04.992Z,4.80
2023-04-28T19:26:35.344Z,4.60
2023-04-28T19:29:05.781Z,4.70
2023-04-28T19:31:36.236Z,4.30
2023-04-28T19:34:06.810Z,4.40
2023-04-28T19:36:38.077Z,4.60
2023-04-28T19:39:08.856Z,3.80
2023-04-28T19:41:39.601Z,4.30
2023-04-28T19:44:10.008Z,4.20
2023-04-28T19:46:40.288Z,3.80
2023-04-28T19:49:11.036Z,3.60
2023-04-28T19:51:41.243Z,4.10
2023-04-28T19:54:11.460Z,4.50
2023-04-28T19:56:41.875Z,4.20
2023-04-28T19:59:12.294Z,4.60
2023-04-28T20:01:43.572Z,4.90
2023-04-28T20:04:14.179Z,4.90
2023-04-28T20:06:44.537Z,5.00
2023-04-28T20:09:15.147Z,4.40
2023-04-28T20:11:45.654Z,4.60
2023-04-28T20:14:16.063Z,3.60
2023-04-28T20:16:46.527Z,4.20
2023-04-28T20:19:17.183Z,4.00
2023-04-28T20:21:47.686Z,3.50
2023-04-28T20:24:17.904Z,3.20
2023-04-28T20:26:48.853Z,2.80
2023-04-28T20:29:19.140Z,3.20
2023-04-28T20:31:50.149Z,3.40
2023-04-28T20:34:22.264Z,3.70
2023-04-28T20:36:52.941Z,3.10
2023-04-28T20:39:23.704Z,2.90
2023-04-28T20:41:54.106Z,2.90
2023-04-28T20:44:24.586Z,2.80
2023-04-28T20:46:55.305Z,2.90
2023-04-28T20:49:25.918Z,2.90
2023-04-28T20:51:59.916Z,2.50
2023-04-28T20:54:30.217Z,3.30
2023-04-28T20:57:00.659Z,3.60
2023-04-28T20:59:32.420Z,3.40
2023-04-28T21:02:03.279Z,3.40
2023-04-28T21:04:33.577Z,3.50
2023-04-28T21:07:04.142Z,3.50
2023-04-28T21:09:35.768Z,3.50
2023-04-28T21:12:06.564Z,3.20
2023-04-28T21:14:37.683Z,3.60
2023-04-28T21:17:07.851Z,3.20
2023-04-28T21:19:37.973Z,3.70
2023-04-28T21:22:08.491Z,2.90
2023-04-28T21:24:38.632Z,2.80
2023-04-28T21:27:09.030Z,2.80
2023-04-28T21:29:39.789Z,2.90
2023-04-28T21:32:09.975Z,2.80
2023-04-28T21:34:40.194Z,2.40
2023-04-28T21:37:10.304Z,2.70
2023-04-28T21:39:40.719Z,2.60
2023-04-28T21:42:10.917Z,2.40
2023-04-28T21:44:44.215Z,2.40
2023-04-28T21:47:16.698Z,2.00
2023-04-28T21:49:47.443Z,3.00
2023-04-28T21:52:17.727Z,2.70
2023-04-28T21:54:49.249Z,2.80
2023-04-28T21:57:19.530Z,2.20
2023-04-28T21:59:50.215Z,2.30
2023-04-28T22:02:20.724Z,1.90
2023-04-28T22:04:51.907Z,2.20
2023-04-28T22:07:25.863Z,2.10
2023-04-28T22:09:57.834Z,1.80
2023-04-28T22:12:29.347Z,2.20
2023-04-28T22:15:00.159Z,2.30
2023-04-28T22:17:30.517Z,2.10
2023-04-28T22:20:01.979Z,2.20
2023-04-28T22:22:33.276Z,2.30
2023-04-28T22:25:04.446Z,1.90
2023-04-28T22:27:34.602Z,2.80
2023-04-28T22:30:05.004Z,2.80
2023-04-28T22:32:35.408Z,2.90
2023-04-28T22:35:06.148Z,2.60
2023-04-28T22:37:37.859Z,3.00
2023-04-28T22:40:09.907Z,3.30
2023-04-28T22:42:40.456Z,2.30
2023-04-28T22:45:14.413Z,2.40
2023-04-28T22:47:44.629Z,2.70
2023-04-28T22:50:14.769Z,2.40
2023-04-28T22:52:44.915Z,2.50
2023-04-28T22:55:15.424Z,2.60
2023-04-28T22:57:45.842Z,2.50
2023-04-28T23:00:17.036Z,2.60
2023-04-28T23:02:47.333Z,2.40
2023-04-28T23:05:17.895Z,2.30
2023-04-28T23:07:48.078Z,2.20
2023-04-28T23:10:18.915Z,2.80
2023-04-28T23:12:49.514Z,2.40
2023-04-28T23:15:19.675Z,2.70
2023-04-28T23:17:49.893Z,2.70
2023-04-28T23:20:20.614Z,2.40
2023-04-28T23:22:52.358Z,2.10
2023-04-28T23:25:22.574Z,2.80
2023-04-28T23:27:52.918Z,2.40
2023-04-28T23:30:23.133Z,2.30
2023-04-28T23:32:53.365Z,2.30
2023-04-28T23:35:23.560Z,2.30
2023-04-28T23:37:53.936Z,2.20
2023-04-28T23:40:24.399Z,2.00
2023-04-28T23:42:54.626Z,2.70
2023-04-28T23:45:24.847Z,2.70
2023-04-28T23:47:55.037Z,4.00
2023-04-28T23:50:26.112Z,3.80
2023-04-28T23:52:56.438Z,3.30
2023-04-28T23:55:26.567Z,2.70
2023-04-28T23:57:56.685Z,2.60
